Time;durP1;ratioP1;P1;durP2;ratioP2;P2;SDS_P1;SDS_P2;PMS_P1;PMS_P2;Temp;Humidity;BMP_temperature;BMP_pressure;BME280_temperature;BME280_humidity;BME280_pressure;Samples;Min_cycle;Max_cycle;Signal;HPM_P1;HPM_P2
2021/04/22 00:00:47;;;;;;;0.30;0.30;;;;;;;8.65;92.14;100510.59;5045169;28;20459;-58
2021/04/22 00:03:14;;;;;;;0.30;0.20;;;;;;;8.41;91.51;100509.22;5039078;28;20478;-58
2021/04/22 00:05:41;;;;;;;0.30;0.20;;;;;;;8.51;91.78;100518.75;5039466;28;20458;-58
2021/04/22 00:08:09;;;;;;;0.30;0.20;;;;;;;8.85;91.85;100508.44;5032286;28;20459;-59
2021/04/22 00:10:42;;;;;;;0.30;0.20;;;;;;;8.80;91.29;100512.97;5025603;28;20452;-58
2021/04/22 00:13:11;;;;;;;0.30;0.20;;;;;;;8.36;92.40;100513.69;5027488;28;20518;-58
2021/04/22 00:15:37;;;;;;;2.40;1.13;;;;;;;8.67;91.92;100509.66;5038661;28;21055;-59
2021/04/22 00:18:06;;;;;;;0.43;0.43;;;;;;;8.82;91.08;100508.50;5044692;28;20486;-58
2021/04/22 00:20:35;;;;;;;0.30;0.20;;;;;;;8.73;91.14;100504.22;5045656;28;20824;-58
2021/04/22 00:23:04;;;;;;;0.40;0.20;;;;;;;8.90;90.66;100509.22;5041203;28;20968;-58
2021/04/22 00:25:31;;;;;;;0.60;0.60;;;;;;;8.99;90.48;100502.88;5036260;28;20915;-58
2021/04/22 00:28:01;;;;;;;0.30;0.20;;;;;;;9.41;88.04;100501.16;5041458;28;20457;-58
2021/04/22 00:30:27;;;;;;;0.30;0.20;;;;;;;9.93;86.15;100508.91;5038443;28;20971;-58
2021/04/22 00:32:53;;;;;;;0.30;0.20;;;;;;;9.87;85.44;100509.03;5047377;28;20491;-58
2021/04/22 00:35:19;;;;;;;1.17;1.17;;;;;;;9.62;86.69;100514.00;5047725;28;20448;-59
2021/04/22 00:37:46;;;;;;;0.30;0.20;;;;;;;10.06;85.26;100513.03;5042232;28;20940;-58
2021/04/22 00:40:21;;;;;;;0.30;0.20;;;;;;;10.21;83.71;100513.56;5033197;28;20450;-59
2021/04/22 00:42:48;;;;;;;1.33;0.60;;;;;;;10.34;83.76;100523.91;5040571;28;20463;-58
2021/04/22 00:45:15;;;;;;;0.30;0.20;;;;;;;10.28;83.86;100525.81;5045223;28;20796;-58
2021/04/22 00:47:42;;;;;;;0.30;0.20;;;;;;;10.41;83.65;100523.75;5031061;28;20474;-59
2021/04/22 00:50:16;;;;;;;0.30;0.20;;;;;;;10.19;83.78;100528.69;5045065;28;20462;-58
2021/04/22 00:52:43;;;;;;;0.30;0.20;;;;;;;10.52;82.75;100524.38;5032226;28;20545;-59
2021/04/22 00:55:10;;;;;;;0.30;0.20;;;;;;;9.79;84.77;100535.75;5038309;28;20451;-59
2021/04/22 00:57:41;;;;;;;0.30;0.20;;;;;;;9.88;85.30;100531.16;5037017;28;20447;-59
2021/04/22 01:00:10;;;;;;;0.30;0.20;;;;;;;9.82;85.91;100542.75;5045223;28;20455;-59
2021/04/22 01:02:38;;;;;;;0.70;0.70;;;;;;;9.53;87.35;100546.03;5044615;28;20471;-59
2021/04/22 01:05:08;;;;;;;0.30;0.20;;;;;;;9.32;88.52;100544.69;5011993;28;20831;-59
2021/04/22 01:07:37;;;;;;;0.30;0.20;;;;;;;9.46;88.05;100544.41;5028640;28;20459;-59
2021/04/22 01:10:04;;;;;;;0.57;0.57;;;;;;;9.35;88.33;100541.09;5036072;28;20463;-59
2021/04/22 01:12:30;;;;;;;0.30;0.17;;;;;;;9.16;89.29;100545.88;5042502;28;20603;-59
2021/04/22 01:14:56;;;;;;;0.40;0.20;;;;;;;8.94;90.59;100550.69;5021010;28;20497;-59
2021/04/22 01:17:22;;;;;;;0.30;0.20;;;;;;;9.65;87.55;100547.56;5044798;28;20509;-58
2021/04/22 01:19:49;;;;;;;0.73;0.73;;;;;;;10.00;84.96;100545.00;5031917;28;20924;-59
2021/04/22 01:22:15;;;;;;;0.30;0.20;;;;;;;10.15;83.87;100549.13;5034529;28;20470;-58
2021/04/22 01:24:41;;;;;;;0.30;0.20;;;;;;;9.93;84.65;100547.84;5051700;28;20451;-58
2021/04/22 01:27:08;;;;;;;0.30;0.20;;;;;;;10.12;83.00;100557.16;5022105;28;20510;-59
2021/04/22 01:29:34;;;;;;;0.30;0.20;;;;;;;9.98;83.23;100568.06;5040614;28;20446;-59
2021/04/22 01:32:00;;;;;;;0.30;0.20;;;;;;;9.73;83.77;100570.41;5037573;28;20494;-59
2021/04/22 01:34:27;;;;;;;0.30;0.20;;;;;;;9.80;84.37;100566.69;5085595;22;20860;-50
2021/04/22 01:36:53;;;;;;;0.30;0.20;;;;;;;9.68;84.34;100572.25;5058461;28;20507;-50
2021/04/22 01:39:19;;;;;;;0.50;0.50;;;;;;;9.89;83.13;100575.38;5068738;28;20452;-50
2021/04/22 01:41:45;;;;;;;0.30;0.20;;;;;;;9.94;83.29;100574.38;5058136;28;20450;-51
2021/04/22 01:44:11;;;;;;;0.30;0.20;;;;;;;9.65;83.90;100571.44;5062251;28;20466;-50
2021/04/22 01:46:37;;;;;;;0.30;0.20;;;;;;;9.34;85.64;100581.81;5066607;28;20472;-51
2021/04/22 01:49:04;;;;;;;0.30;0.20;;;;;;;9.07;86.43;100589.34;5064502;28;20938;-51
2021/04/22 01:51:31;;;;;;;0.30;0.20;;;;;;;8.72;87.94;100586.41;5061672;28;20456;-50
2021/04/22 01:53:58;;;;;;;0.30;0.20;;;;;;;9.23;85.88;100586.41;5065530;28;20474;-50
2021/04/22 01:56:24;;;;;;;0.30;0.20;;;;;;;9.41;84.01;100592.25;5068404;28;20884;-50
2021/04/22 01:58:50;;;;;;;0.40;0.40;;;;;;;9.44;83.78;100596.63;5064473;28;20533;-51
2021/04/22 02:01:16;;;;;;;0.30;0.20;;;;;;;9.63;82.47;100594.50;5061314;28;20446;-51
2021/04/22 02:03:42;;;;;;;0.30;0.20;;;;;;;9.30;83.16;100596.00;5065483;28;20840;-50
2021/04/22 02:06:10;;;;;;;0.30;0.20;;;;;;;9.29;83.36;100599.56;5068235;28;20598;-50
2021/04/22 02:08:36;;;;;;;0.30;0.20;;;;;;;9.37;82.61;100597.66;5060805;28;20496;-50
2021/04/22 02:11:05;;;;;;;0.30;0.20;;;;;;;9.59;81.56;100601.63;5068221;28;20481;-50
2021/04/22 02:13:32;;;;;;;0.30;0.20;;;;;;;9.32;82.19;100616.31;5065039;28;20538;-50
2021/04/22 02:15:59;;;;;;;0.30;0.20;;;;;;;9.17;82.70;100606.81;5061147;28;20446;-50
2021/04/22 02:18:25;;;;;;;0.30;0.20;;;;;;;9.11;82.89;100620.22;5064138;28;20458;-50
2021/04/22 02:20:52;;;;;;;0.30;0.17;;;;;;;9.32;82.65;100618.06;5068161;28;20447;-51
2021/04/22 02:23:21;;;;;;;0.30;0.20;;;;;;;9.07;83.24;100620.31;5066015;28;20541;-51
2021/04/22 02:25:48;;;;;;;0.30;0.20;;;;;;;9.10;82.90;100623.75;5061200;28;20816;-50
2021/04/22 02:28:15;;;;;;;0.30;0.20;;;;;;;8.88;83.42;100635.63;5062416;28;20797;-50
2021/04/22 02:30:42;;;;;;;0.30;0.20;;;;;;;8.70;85.11;100638.56;5067595;28;20504;-51
2021/04/22 02:33:17;;;;;;;0.30;0.20;;;;;;;8.46;85.50;100642.44;5066772;28;20493;-50
2021/04/22 02:35:45;;;;;;;0.40;0.30;;;;;;;8.43;86.22;100643.38;5048604;28;20441;-50
2021/04/22 02:38:13;;;;;;;0.30;0.20;;;;;;;8.42;85.41;100644.28;5060247;28;20458;-50
2021/04/22 02:40:42;;;;;;;0.30;0.20;;;;;;;8.30;85.69;100641.75;5061967;28;20477;-50
2021/04/22 02:43:11;;;;;;;0.30;0.20;;;;;;;8.49;84.89;100642.41;5061113;28;20490;-50
2021/04/22 02:45:42;;;;;;;0.30;0.20;;;;;;;8.42;85.15;100644.28;5066110;28;20454;-50
2021/04/22 02:48:10;;;;;;;0.30;0.10;;;;;;;8.29;84.45;100642.66;5067431;28;20815;-53
2021/04/22 02:50:45;;;;;;;0.30;0.20;;;;;;;8.29;84.00;100650.59;5063720;28;20935;-50
2021/04/22 02:53:13;;;;;;;0.30;0.20;;;;;;;8.21;84.19;100648.03;5060203;28;20493;-50
2021/04/22 02:55:41;;;;;;;0.30;0.20;;;;;;;8.13;84.44;100655.22;5063242;28;20512;-50
2021/04/22 02:58:21;;;;;;;0.30;0.20;;;;;;;8.18;83.70;100657.81;5066642;28;20952;-52
2021/04/22 03:00:48;;;;;;;0.30;0.20;;;;;;;8.21;84.29;100648.03;5066861;28;20449;-50
2021/04/22 03:03:15;;;;;;;0.30;0.20;;;;;;;8.41;83.00;100652.25;5060094;28;20466;-51
2021/04/22 03:05:41;;;;;;;0.30;0.20;;;;;;;8.35;82.15;100657.59;5060891;28;20516;-50
2021/04/22 03:08:07;;;;;;;0.30;0.30;;;;;;;8.41;82.98;100649.59;5067075;28;20451;-50
2021/04/22 03:10:34;;;;;;;0.30;0.20;;;;;;;8.22;82.95;100659.50;5059462;28;20454;-50
2021/04/22 03:13:02;;;;;;;0.30;0.20;;;;;;;8.43;81.63;100651.31;5058746;28;20490;-51
2021/04/22 03:15:28;;;;;;;0.30;0.20;;;;;;;8.36;81.95;100651.41;5060692;28;20500;-50
2021/04/22 03:17:55;;;;;;;0.30;0.20;;;;;;;8.26;81.96;100655.94;5066767;28;21005;-50
2021/04/22 03:20:22;;;;;;;0.30;0.20;;;;;;;8.10;82.84;100657.91;5066622;28;20453;-50
2021/04/22 03:22:48;;;;;;;0.30;0.20;;;;;;;8.05;83.52;100664.16;5046925;28;20473;-50
2021/04/22 03:25:17;;;;;;;0.30;0.20;;;;;;;7.81;83.48;100666.22;5059944;28;20860;-51
2021/04/22 03:27:43;;;;;;;0.70;0.70;;;;;;;7.91;83.75;100672.25;5047962;28;20454;-50
2021/04/22 03:30:13;;;;;;;0.30;0.20;;;;;;;8.19;82.77;100675.44;5059675;28;20867;-51
2021/04/22 03:32:40;;;;;;;0.30;0.20;;;;;;;7.93;84.47;100686.34;5068602;28;21017;-50
2021/04/22 03:35:07;;;;;;;0.30;0.20;;;;;;;8.09;83.03;100676.47;5065757;28;20493;-51
2021/04/22 03:37:33;;;;;;;0.30;0.20;;;;;;;8.01;83.58;100692.44;5062644;28;20445;-50
2021/04/22 03:40:00;;;;;;;0.30;0.20;;;;;;;7.90;83.54;100695.19;5056638;28;20447;-51
2021/04/22 03:42:27;;;;;;;0.30;0.20;;;;;;;7.75;84.52;100694.50;5064363;28;20497;-50
2021/04/22 03:44:53;;;;;;;0.30;0.20;;;;;;;7.84;83.99;100694.41;5066411;28;20515;-51
2021/04/22 03:47:19;;;;;;;0.30;0.20;;;;;;;7.82;83.26;100694.41;5062100;28;20469;-51
2021/04/22 03:49:45;;;;;;;0.30;0.20;;;;;;;7.87;83.17;100697.88;5059308;28;20450;-50
2021/04/22 03:52:12;;;;;;;0.30;0.10;;;;;;;7.96;82.84;100703.09;5064364;28;20486;-50
2021/04/22 03:54:39;;;;;;;0.30;0.20;;;;;;;7.93;82.79;100702.22;5066236;28;20470;-50
2021/04/22 03:57:06;;;;;;;0.30;0.20;;;;;;;7.92;82.85;100701.34;5062202;28;20939;-50
2021/04/22 03:59:32;;;;;;;1.93;1.93;;;;;;;7.84;82.61;100700.56;5059278;28;20507;-50
2021/04/22 04:01:58;;;;;;;0.30;0.20;;;;;;;7.72;82.05;100698.06;5062779;28;20526;-51
2021/04/22 04:04:25;;;;;;;2.73;0.77;;;;;;;7.53;83.72;100707.03;5066195;28;20512;-52
2021/04/22 04:06:51;;;;;;;0.30;0.20;;;;;;;7.48;83.02;100716.81;5062965;28;20450;-51
2021/04/22 04:09:17;;;;;;;0.30;0.20;;;;;;;7.49;82.47;100722.06;5059178;28;20559;-51
2021/04/22 04:11:44;;;;;;;0.30;0.20;;;;;;;7.68;81.30;100715.72;5062296;28;20458;-51
2021/04/22 04:14:10;;;;;;;0.30;0.20;;;;;;;7.75;81.30;100724.47;5065810;28;20890;-51
2021/04/22 04:16:36;;;;;;;0.30;0.20;;;;;;;7.45;82.44;100728.28;5062808;28;20450;-50
2021/04/22 04:19:03;;;;;;;0.30;0.17;;;;;;;7.18;82.60;100723.22;5058952;28;20866;-51
2021/04/22 04:21:30;;;;;;;0.30;0.20;;;;;;;7.55;81.98;100732.63;5061935;28;20459;-51
2021/04/22 04:23:57;;;;;;;0.30;0.20;;;;;;;7.37;81.91;100733.63;5065791;28;20528;-51
2021/04/22 04:26:23;;;;;;;0.30;0.20;;;;;;;7.34;82.03;100738.06;5063435;28;20446;-51
2021/04/22 04:28:50;;;;;;;0.30;0.20;;;;;;;7.50;81.26;100734.41;5058952;28;20507;-51
2021/04/22 04:31:17;;;;;;;0.30;0.20;;;;;;;7.39;81.32;100749.47;5059507;28;20948;-51
2021/04/22 04:33:43;;;;;;;0.30;0.20;;;;;;;7.25;81.56;100754.88;5056916;28;20497;-51
2021/04/22 04:36:11;;;;;;;0.30;0.20;;;;;;;7.25;81.63;100749.59;5055021;28;20477;-51
2021/04/22 04:38:37;;;;;;;0.30;0.20;;;;;;;7.13;82.10;100761.16;5060870;28;20446;-51
2021/04/22 04:41:03;;;;;;;0.30;0.20;;;;;;;6.89;82.35;100752.50;5062766;28;20934;-51
2021/04/22 04:43:29;;;;;;;0.30;0.20;;;;;;;6.95;82.88;100753.31;5058388;28;20461;-53
2021/04/22 04:45:56;;;;;;;0.30;0.20;;;;;;;6.81;83.29;100758.69;5061173;28;20450;-52
2021/04/22 04:48:22;;;;;;;0.30;0.20;;;;;;;7.01;82.26;100763.00;5065640;28;20454;-52
2021/04/22 04:50:48;;;;;;;0.30;0.20;;;;;;;6.89;83.12;100769.25;5061726;28;20508;-52
2021/04/22 04:53:14;;;;;;;0.30;0.17;;;;;;;6.87;82.03;100775.44;5058184;28;20493;-52
2021/04/22 04:55:40;;;;;;;0.30;0.20;;;;;;;6.80;83.39;100779.84;5061359;28;20457;-52
2021/04/22 04:58:07;;;;;;;0.30;0.20;;;;;;;6.74;83.80;100785.19;5065292;28;20936;-52
2021/04/22 05:00:33;;;;;;;0.30;0.20;;;;;;;7.08;82.91;100791.13;5062568;28;20455;-52
2021/04/22 05:02:59;;;;;;;0.30;0.20;;;;;;;7.07;83.25;100790.25;5058629;28;20466;-52
2021/04/22 05:05:25;;;;;;;0.30;0.20;;;;;;;7.27;80.82;100799.84;5060982;28;20944;-52
2021/04/22 05:07:51;;;;;;;0.30;0.20;;;;;;;7.26;80.90;100791.00;5063825;28;20450;-52
2021/04/22 05:10:17;;;;;;;0.30;0.20;;;;;;;7.15;82.25;100794.63;5062834;28;20445;-52
2021/04/22 05:12:43;;;;;;;0.30;0.20;;;;;;;7.18;81.54;100807.81;5057675;28;20569;-53
2021/04/22 05:15:10;;;;;;;0.30;0.20;;;;;;;7.12;82.45;100814.88;5060988;28;20450;-52
2021/04/22 05:17:36;;;;;;;0.30;0.20;;;;;;;7.21;82.68;100823.66;5065053;28;20993;-52
2021/04/22 05:20:06;;;;;;;0.30;0.20;;;;;;;7.27;82.94;100828.94;5063272;28;20449;-52
2021/04/22 05:22:33;;;;;;;0.30;0.20;;;;;;;7.64;80.33;100832.16;5061372;28;20494;-52
2021/04/22 05:24:59;;;;;;;0.30;0.20;;;;;;;7.77;78.08;100832.94;5063731;28;20469;-52
2021/04/22 05:27:25;;;;;;;0.30;0.20;;;;;;;8.08;76.77;100833.53;5068561;28;20519;-52
2021/04/22 05:29:52;;;;;;;0.30;0.20;;;;;;;7.87;77.34;100842.56;5066358;28;20500;-52
2021/04/22 05:32:19;;;;;;;0.30;0.20;;;;;;;7.87;77.86;100842.56;5061034;28;20477;-52
2021/04/22 05:34:45;;;;;;;0.30;0.20;;;;;;;7.84;77.50;100850.53;5075498;28;20959;-52
2021/04/22 05:37:16;;;;;;;0.30;0.20;;;;;;;7.96;76.46;100846.03;5061822;28;20820;-52
2021/04/22 05:39:42;;;;;;;0.30;0.20;;;;;;;8.09;75.09;100859.16;5059457;28;20500;-53
2021/04/22 05:42:08;;;;;;;0.30;0.17;;;;;;;7.64;76.29;100855.97;5068395;28;20453;-52
2021/04/22 05:44:34;;;;;;;0.30;0.20;;;;;;;7.49;75.78;100853.44;5068503;28;20473;-52
2021/04/22 05:47:00;;;;;;;0.30;0.20;;;;;;;7.96;75.52;100863.69;5061758;28;20874;-52
2021/04/22 05:49:27;;;;;;;0.30;0.20;;;;;;;7.69;75.66;100864.78;5061534;28;20454;-52
2021/04/22 05:51:54;;;;;;;0.30;0.20;;;;;;;7.88;75.33;100866.38;5048747;28;20996;-51
2021/04/22 05:54:20;;;;;;;0.30;0.20;;;;;;;7.76;76.71;100873.53;5061297;28;20471;-52
2021/04/22 05:56:46;;;;;;;0.30;0.20;;;;;;;7.56;76.31;100881.63;5067880;28;20451;-52
2021/04/22 05:59:12;;;;;;;0.30;0.20;;;;;;;7.52;76.63;100874.56;5068438;28;20460;-52
2021/04/22 06:01:39;;;;;;;0.30;0.20;;;;;;;7.35;76.65;100886.16;5062300;28;20468;-52
2021/04/22 06:04:06;;;;;;;0.30;0.20;;;;;;;7.38;77.30;100885.25;5060016;28;20496;-52
2021/04/22 06:06:32;;;;;;;0.30;0.20;;;;;;;7.47;77.31;100892.25;5067529;28;20447;-52
2021/04/22 06:08:58;;;;;;;0.30;0.20;;;;;;;7.38;76.73;100888.75;5055258;28;20504;-52
2021/04/22 06:11:24;;;;;;;0.30;0.20;;;;;;;7.35;77.79;100895.84;5067528;28;20949;-52
2021/04/22 06:13:53;;;;;;;0.30;0.20;;;;;;;7.49;77.21;100901.94;5067925;28;20552;-52
2021/04/22 06:16:19;;;;;;;0.30;0.20;;;;;;;7.46;77.54;100904.59;5062068;28;20452;-52
2021/04/22 06:18:45;;;;;;;0.30;0.20;;;;;;;7.63;76.09;100905.38;5060618;28;20974;-52
2021/04/22 06:21:12;;;;;;;0.30;0.20;;;;;;;7.72;75.86;100909.72;5067410;28;20458;-52
2021/04/22 06:23:39;;;;;;;0.30;0.20;;;;;;;7.57;75.59;100915.13;5067834;28;20462;-52
2021/04/22 06:26:05;;;;;;;0.30;0.20;;;;;;;7.71;76.56;100913.25;5062614;28;20470;-52
2021/04/22 06:28:32;;;;;;;0.30;0.20;;;;;;;7.68;75.77;100914.16;5060911;28;20447;-52
2021/04/22 06:30:58;;;;;;;0.30;0.20;;;;;;;7.62;76.79;100918.59;5066860;28;20870;-52
2021/04/22 06:33:24;;;;;;;0.30;0.20;;;;;;;7.41;75.66;100923.16;5053626;28;21014;-52
2021/04/22 06:35:50;;;;;;;0.30;0.10;;;;;;;7.75;74.85;100928.22;5066340;28;20469;-52
2021/04/22 06:38:17;;;;;;;0.30;0.20;;;;;;;7.47;74.16;100924.88;5065166;28;20514;-52
2021/04/22 06:40:43;;;;;;;0.30;0.20;;;;;;;7.85;73.75;100921.97;5065201;28;20495;-52
2021/04/22 06:43:13;;;;;;;0.30;0.10;;;;;;;7.93;75.46;100929.84;5067143;28;20466;-52
2021/04/22 06:45:45;;;;;;;0.30;0.20;;;;;;;7.95;73.28;100941.34;5062790;28;20446;-52
2021/04/22 06:48:14;;;;;;;0.30;0.20;;;;;;;7.52;72.98;100938.06;5060548;28;20858;-52
2021/04/22 06:50:42;;;;;;;0.30;0.20;;;;;;;7.74;73.35;100934.41;5064346;28;20454;-52
2021/04/22 06:53:08;;;;;;;0.30;0.20;;;;;;;7.96;72.60;100940.44;5067599;28;20549;-52
2021/04/22 06:55:35;;;;;;;0.30;0.20;;;;;;;7.89;71.16;100931.66;5064011;28;20450;-52
2021/04/22 06:58:04;;;;;;;1.80;1.70;;;;;;;7.97;71.85;100947.50;5061029;28;20442;-52
2021/04/22 07:00:33;;;;;;;0.30;0.20;;;;;;;7.90;71.14;100944.00;5063575;28;21085;-52
2021/04/22 07:02:59;;;;;;;0.30;0.20;;;;;;;8.12;71.42;100955.31;5066790;28;20473;-52
2021/04/22 07:05:26;;;;;;;0.30;0.20;;;;;;;8.08;71.02;100952.69;5063223;28;20449;-53
2021/04/22 07:07:52;;;;;;;0.30;0.20;;;;;;;8.01;70.48;100947.44;5060959;28;20445;-51
2021/04/22 07:10:19;;;;;;;0.30;0.20;;;;;;;8.30;70.13;100960.44;5066818;28;20508;-51
2021/04/22 07:12:46;;;;;;;0.30;0.20;;;;;;;8.23;69.08;100963.19;5060029;28;20627;-50
2021/04/22 07:15:13;;;;;;;0.30;0.20;;;;;;;8.20;68.62;100961.41;5061779;28;20501;-51
2021/04/22 07:17:40;;;;;;;0.30;0.20;;;;;;;8.27;68.76;100957.84;5066742;28;20458;-51
2021/04/22 07:20:29;;;;;;;0.30;0.20;;;;;;;8.07;67.94;100970.34;5063702;28;20533;-51
2021/04/22 07:22:57;;;;;;;0.30;0.20;;;;;;;8.46;68.72;100971.81;5065313;28;20828;-51
2021/04/22 07:25:27;;;;;;;0.30;0.20;;;;;;;8.17;68.72;100974.69;5066310;28;20992;-51
2021/04/22 07:27:53;;;;;;;0.30;0.20;;;;;;;8.58;67.90;100974.34;5061813;28;20457;-51
2021/04/22 07:30:21;;;;;;;0.30;0.20;;;;;;;8.49;65.52;100976.19;5059348;28;20443;-51
2021/04/22 07:32:47;;;;;;;0.30;0.20;;;;;;;8.31;65.69;100986.03;5067722;28;20970;-51
2021/04/22 07:35:15;;;;;;;0.30;0.20;;;;;;;8.51;66.73;100977.09;5070192;28;21004;-51
2021/04/22 07:37:42;;;;;;;0.30;0.20;;;;;;;8.56;65.62;100976.16;5062739;28;20454;-51
2021/04/22 07:40:10;;;;;;;0.30;0.20;;;;;;;8.91;66.13;100972.28;5057134;28;20450;-50
2021/04/22 07:42:38;;;;;;;0.30;0.20;;;;;;;8.63;64.59;100981.38;5061891;28;21065;-51
2021/04/22 07:45:06;;;;;;;0.30;0.20;;;;;;;8.38;66.22;100983.38;5065427;28;20505;-51
2021/04/22 07:47:32;;;;;;;0.30;0.20;;;;;;;8.61;67.10;100979.63;5064314;28;20450;-51
2021/04/22 07:49:58;;;;;;;0.47;0.47;;;;;;;8.50;66.22;100975.34;5059432;28;20449;-51
2021/04/22 07:52:25;;;;;;;0.30;0.20;;;;;;;8.77;65.30;100969.78;5060755;28;20481;-51
2021/04/22 07:54:51;;;;;;;0.30;0.20;;;;;;;8.84;65.22;100973.22;5065935;28;20512;-52
2021/04/22 07:57:18;;;;;;;0.30;0.20;;;;;;;8.98;64.66;100979.25;5064393;28;20455;-51
2021/04/22 07:59:44;;;;;;;0.40;0.30;;;;;;;9.28;65.72;100971.84;5059447;28;20504;-52
2021/04/22 08:02:30;;;;;;;0.30;0.20;;;;;;;9.21;65.24;100976.34;5059165;28;20497;-52
2021/04/22 08:04:56;;;;;;;0.30;0.20;;;;;;;9.04;63.76;100973.88;5063464;28;20820;-51
2021/04/22 08:07:23;;;;;;;0.30;0.20;;;;;;;9.34;61.47;100969.13;5065659;28;20528;-52
2021/04/22 08:09:49;;;;;;;0.30;0.20;;;;;;;9.05;62.47;100973.00;5060595;28;20507;-51
2021/04/22 08:12:15;;;;;;;0.30;0.20;;;;;;;9.39;59.80;100981.41;5058837;28;20455;-51
2021/04/22 08:14:41;;;;;;;0.30;0.20;;;;;;;9.61;58.57;100979.38;5064348;28;20895;-51
2021/04/22 08:17:07;;;;;;;0.30;0.20;;;;;;;9.67;58.08;100992.56;5065655;28;20454;-52
2021/04/22 08:19:34;;;;;;;0.30;0.20;;;;;;;9.48;57.31;100985.75;5060317;28;20457;-51
2021/04/22 08:22:00;;;;;;;0.30;0.20;;;;;;;9.52;56.97;100983.91;5058489;28;20538;-51
2021/04/22 08:24:28;;;;;;;0.30;0.20;;;;;;;9.79;57.66;100997.69;5064342;28;20474;-52
2021/04/22 08:26:54;;;;;;;0.30;0.20;;;;;;;9.75;57.50;100992.47;5065707;28;20453;-52
2021/04/22 08:29:21;;;;;;;0.30;0.20;;;;;;;9.30;59.21;100988.59;5060561;28;20453;-51
2021/04/22 08:31:48;;;;;;;0.30;0.17;;;;;;;9.53;59.45;100994.50;5057572;28;20508;-52
2021/04/22 08:34:14;;;;;;;0.30;0.20;;;;;;;9.59;59.14;100990.88;5059763;28;20502;-52
2021/04/22 08:36:44;;;;;;;0.30;0.20;;;;;;;9.89;57.85;100992.25;5058756;28;20508;-52
2021/04/22 08:39:10;;;;;;;0.30;0.20;;;;;;;9.47;57.85;100991.94;5068885;28;20454;-52
2021/04/22 08:41:39;;;;;;;0.30;0.20;;;;;;;9.88;57.19;100990.50;5058389;28;21003;-52
2021/04/22 08:44:06;;;;;;;0.30;0.20;;;;;;;10.07;57.75;100997.28;5062960;28;20462;-51
2021/04/22 08:46:36;;;;;;;0.30;0.20;;;;;;;9.70;58.32;101003.13;5065386;28;20861;-51
2021/04/22 08:49:03;;;;;;;3.60;1.57;;;;;;;10.21;57.72;100998.00;5061835;28;20446;-51
2021/04/22 08:51:31;;;;;;;0.30;0.20;;;;;;;9.86;58.41;101000.25;5058516;28;20453;-51
2021/04/22 08:53:57;;;;;;;0.30;0.20;;;;;;;10.16;57.36;101002.47;5061736;28;20498;-51
2021/04/22 08:56:23;;;;;;;0.30;0.20;;;;;;;9.93;57.38;101001.94;5066719;28;20454;-52
2021/04/22 08:58:51;;;;;;;0.30;0.20;;;;;;;10.02;56.72;100999.16;5066657;28;20449;-51
2021/04/22 09:01:19;;;;;;;0.30;0.20;;;;;;;10.16;56.18;100994.50;5062639;28;20476;-52
2021/04/22 09:03:48;;;;;;;0.40;0.40;;;;;;;10.42;54.40;100999.44;5065137;28;20474;-52
2021/04/22 09:06:16;;;;;;;0.30;0.20;;;;;;;10.57;54.51;101000.97;5069043;28;20457;-52
2021/04/22 09:08:45;;;;;;;0.30;0.20;;;;;;;10.87;51.67;100995.09;5062960;28;20462;-52
2021/04/22 09:11:16;;;;;;;0.33;0.23;;;;;;;11.41;51.78;100997.59;5069585;28;20546;-51
2021/04/22 09:13:43;;;;;;;0.30;0.20;;;;;;;11.20;51.60;100996.22;5068582;28;20901;-52
2021/04/22 09:16:12;;;;;;;0.30;0.20;;;;;;;10.99;52.30;100983.34;5049656;28;20840;-51
2021/04/22 09:18:48;;;;;;;0.30;0.20;;;;;;;11.24;52.12;100983.75;5061860;28;20550;-52
2021/04/22 09:21:26;;;;;;;0.60;0.50;;;;;;;10.66;50.22;101000.78;5068181;28;20446;-52
2021/04/22 09:24:11;;;;;;;0.30;0.20;;;;;;;10.66;52.46;100987.50;5069121;28;20978;-51
2021/04/22 09:26:57;;;;;;;0.30;0.20;;;;;;;10.87;53.66;100983.56;5068304;28;20442;-51
2021/04/22 09:29:32;;;;;;;0.30;0.20;;;;;;;10.26;53.04;100987.28;5066966;28;20442;-51
2021/04/22 09:32:27;;;;;;;0.30;0.20;;;;;;;10.34;52.57;100988.91;5065328;28;20521;-51
2021/04/22 09:35:00;;;;;;;0.30;0.20;;;;;;;10.83;52.71;100981.88;5067201;28;20454;-52
2021/04/22 09:37:38;;;;;;;0.30;0.20;;;;;;;11.38;49.27;100983.47;5062959;28;20438;-52
2021/04/22 09:40:14;;;;;;;0.30;0.20;;;;;;;11.78;47.67;100981.66;5058715;28;20454;-52
2021/04/22 09:42:40;;;;;;;0.30;0.20;;;;;;;11.02;48.30;100983.28;5064685;28;20520;-52
2021/04/22 09:45:09;;;;;;;0.30;0.20;;;;;;;11.45;49.19;100987.75;5068645;28;20450;-52
2021/04/22 09:47:35;;;;;;;0.30;0.20;;;;;;;11.78;47.61;100988.78;5066068;28;20823;-52
2021/04/22 09:50:02;;;;;;;0.30;0.20;;;;;;;11.69;46.78;100981.03;5061509;28;20811;-52
2021/04/22 09:52:39;;;;;;;0.30;0.20;;;;;;;11.96;47.29;100969.78;5063965;28;20849;-52
2021/04/22 09:55:15;;;;;;;0.30;0.20;;;;;;;12.03;46.55;100967.84;5067219;28;20458;-51
2021/04/22 09:57:44;;;;;;;0.30;0.20;;;;;;;12.26;45.05;100964.63;5068383;28;20449;-51
2021/04/22 10:00:19;;;;;;;0.30;0.20;;;;;;;12.03;46.96;100971.38;5062403;28;20449;-51
2021/04/22 10:02:57;;;;;;;0.30;0.20;;;;;;;12.46;45.78;100964.97;5061227;28;21016;-51
2021/04/22 10:05:29;;;;;;;0.30;0.20;;;;;;;12.33;46.46;100971.53;5064865;28;20442;-51
2021/04/22 10:08:16;;;;;;;0.30;0.20;;;;;;;11.96;47.14;100975.09;5068159;28;20447;-51
2021/04/22 10:11:12;;;;;;;0.30;0.20;;;;;;;12.10;46.34;100967.66;5062008;28;20446;-51
2021/04/22 10:13:44;;;;;;;0.30;0.20;;;;;;;12.53;46.38;100963.94;5065799;28;20508;-51
2021/04/22 10:16:10;;;;;;;0.30;0.20;;;;;;;12.87;46.36;100961.22;5061506;28;20450;-51
2021/04/22 10:18:45;;;;;;;0.30;0.20;;;;;;;12.66;46.72;100968.03;5062196;28;20545;-52
2021/04/22 10:21:12;;;;;;;0.30;0.20;;;;;;;12.84;44.19;100961.31;5067770;28;20465;-52
2021/04/22 10:23:39;;;;;;;0.30;0.20;;;;;;;12.80;45.65;100961.44;5068104;28;20473;-51
2021/04/22 10:26:16;;;;;;;0.30;0.20;;;;;;;12.63;45.20;100961.91;5061485;28;20450;-52
2021/04/22 10:28:42;;;;;;;0.40;0.30;;;;;;;12.35;45.50;100967.06;5060984;28;20442;-52
2021/04/22 10:31:08;;;;;;;0.40;0.30;;;;;;;12.02;45.60;100964.28;5065937;28;20986;-52
2021/04/22 10:33:35;;;;;;;0.30;0.20;;;;;;;13.00;45.81;100962.63;5069864;28;20501;-52
2021/04/22 10:36:01;;;;;;;0.30;0.20;;;;;;;12.89;43.29;100969.22;5063489;28;20454;-52
2021/04/22 10:38:30;;;;;;;0.30;0.20;;;;;;;12.60;43.46;100961.97;5064648;28;20969;-52
2021/04/22 10:40:57;;;;;;;0.30;0.20;;;;;;;13.33;43.01;100965.31;5064345;28;20489;-52
2021/04/22 10:43:26;;;;;;;0.30;0.20;;;;;;;13.29;42.90;100961.88;5059148;28;20470;-52
2021/04/22 10:45:54;;;;;;;0.30;0.20;;;;;;;13.10;41.99;100960.59;5064128;28;20447;-52
2021/04/22 10:48:21;;;;;;;0.80;0.80;;;;;;;13.08;41.87;100965.09;5067344;28;20990;-52
2021/04/22 10:50:50;;;;;;;0.30;0.20;;;;;;;13.40;41.62;100958.00;5064901;28;20450;-52
2021/04/22 10:53:19;;;;;;;0.30;0.20;;;;;;;13.24;40.80;100957.56;5060598;28;20485;-51
2021/04/22 10:55:48;;;;;;;0.30;0.20;;;;;;;13.14;41.23;100964.94;5062358;28;20456;-51
2021/04/22 10:58:43;;;;;;;0.30;0.20;;;;;;;13.36;41.31;100959.03;5067419;28;20458;-51
2021/04/22 11:01:12;;;;;;;0.30;0.20;;;;;;;13.63;42.07;100956.41;5043383;28;20454;-53
2021/04/22 11:03:39;;;;;;;0.30;0.20;;;;;;;14.16;42.22;100952.97;5064285;28;20532;-52
2021/04/22 11:06:08;;;;;;;0.30;0.20;;;;;;;14.63;41.48;100950.50;5066926;28;20542;-52
2021/04/22 11:08:42;;;;;;;0.30;0.20;;;;;;;13.82;41.82;100945.13;5060635;28;20458;-52
2021/04/22 11:11:18;;;;;;;0.40;0.30;;;;;;;14.21;41.78;100943.84;5066642;28;20450;-52
2021/04/22 11:13:45;;;;;;;0.30;0.20;;;;;;;14.29;41.26;100948.97;5066304;28;20489;-51
2021/04/22 11:16:13;;;;;;;0.30;0.20;;;;;;;14.44;41.34;100947.59;5060031;28;20450;-52
2021/04/22 11:18:55;;;;;;;0.30;0.20;;;;;;;14.14;40.47;100945.00;5059402;28;20624;-51
2021/04/22 11:21:31;;;;;;;0.30;0.20;;;;;;;14.74;41.48;100935.81;5065519;28;20484;-52
2021/04/22 11:24:04;;;;;;;0.30;0.20;;;;;;;14.66;40.76;100932.53;5066226;28;20530;-52
2021/04/22 11:26:39;;;;;;;0.30;0.20;;;;;;;14.29;40.32;100932.03;5064081;28;20445;-52
2021/04/22 11:29:18;;;;;;;0.30;0.20;;;;;;;13.75;40.67;100943.59;5059587;28;20502;-52
2021/04/22 11:31:52;;;;;;;7.93;0.93;;;;;;;14.23;40.74;100939.31;5059507;28;20533;-52
2021/04/22 11:34:39;;;;;;;0.30;0.20;;;;;;;14.82;39.73;100939.13;5072932;28;20500;-52
2021/04/22 11:37:23;;;;;;;0.30;0.20;;;;;;;14.99;38.82;100929.59;5058017;28;20453;-52